sensor_id;sensor_type;location;lat;lon;timestamp;pressure;altitude;pressure_sealevel;temperature;humidity
54329;BME280;40710;51.120;13.136;2023-02-13T00:02:01;101536.69;;;10.19;68.49
54329;BME280;40710;51.120;13.136;2023-02-13T00:04:26;101547.19;;;9.60;72.03
54329;BME280;40710;51.120;13.136;2023-02-13T00:06:50;101537.72;;;10.09;70.42
54329;BME280;40710;51.120;13.136;2023-02-13T00:09:15;101546.03;;;9.79;71.95
54329;BME280;40710;51.120;13.136;2023-02-13T00:11:40;101544.44;;;9.68;71.68
54329;BME280;40710;51.120;13.136;2023-02-13T00:14:04;101526.84;;;10.32;69.56
54329;BME280;40710;51.120;13.136;2023-02-13T00:16:29;101531.06;;;10.40;69.62
54329;BME280;40710;51.120;13.136;2023-02-13T00:18:53;101517.34;;;10.73;68.08
54329;BME280;40710;51.120;13.136;2023-02-13T00:21:18;101516.50;;;10.71;67.95
54329;BME280;40710;51.120;13.136;2023-02-13T00:23:42;101520.19;;;11.06;66.90
54329;BME280;40710;51.120;13.136;2023-02-13T00:26:10;101512.59;;;10.45;68.12
54329;BME280;40710;51.120;13.136;2023-02-13T00:28:35;101515.38;;;10.84;67.36
54329;BME280;40710;51.120;13.136;2023-02-13T00:31:08;101523.53;;;10.19;68.79
54329;BME280;40710;51.120;13.136;2023-02-13T00:33:33;101523.59;;;10.14;68.96
54329;BME280;40710;51.120;13.136;2023-02-13T00:36:10;101516.94;;;10.94;67.28
54329;BME280;40710;51.120;13.136;2023-02-13T00:38:36;101510.44;;;10.66;67.63
54329;BME280;40710;51.120;13.136;2023-02-13T00:41:02;101517.19;;;10.32;69.35
54329;BME280;40710;51.120;13.136;2023-02-13T00:43:26;101523.59;;;10.16;69.50
54329;BME280;40710;51.120;13.136;2023-02-13T00:45:51;101519.69;;;10.42;68.66
54329;BME280;40710;51.120;13.136;2023-02-13T00:48:15;101524.25;;;10.27;68.99
54329;BME280;40710;51.120;13.136;2023-02-13T00:50:40;101519.78;;;10.35;68.81
54329;BME280;40710;51.120;13.136;2023-02-13T00:53:05;101515.09;;;10.53;68.64
54329;BME280;40710;51.120;13.136;2023-02-13T00:55:29;101517.75;;;10.50;68.49
54329;BME280;40710;51.120;13.136;2023-02-13T00:57:54;101510.38;;;10.70;67.39
54329;BME280;40710;51.120;13.136;2023-02-13T01:00:19;101518.56;;;10.53;68.65
54329;BME280;40710;51.120;13.136;2023-02-13T01:02:43;101526.47;;;10.53;68.59
54329;BME280;40710;51.120;13.136;2023-02-13T01:05:08;101520.28;;;10.56;68.66
54329;BME280;40710;51.120;13.136;2023-02-13T01:07:32;101523.88;;;10.52;68.96
54329;BME280;40710;51.120;13.136;2023-02-13T01:09:57;101519.69;;;10.42;68.75
54329;BME280;40710;51.120;13.136;2023-02-13T01:12:21;101533.53;;;9.95;70.61
54329;BME280;40710;51.120;13.136;2023-02-13T01:14:46;101520.94;;;10.67;69.00
54329;BME280;40710;51.120;13.136;2023-02-13T01:17:10;101528.44;;;10.42;68.87
54329;BME280;40710;51.120;13.136;2023-02-13T01:19:35;101520.59;;;10.39;68.72
54329;BME280;40710;51.120;13.136;2023-02-13T01:21:59;101523.38;;;10.28;70.17
54329;BME280;40710;51.120;13.136;2023-02-13T01:24:24;101523.56;;;10.17;70.23
54329;BME280;40710;51.120;13.136;2023-02-13T01:26:49;101517.38;;;10.20;68.99
54329;BME280;40710;51.120;13.136;2023-02-13T01:29:13;101525.88;;;9.81;70.34
54329;BME280;40710;51.120;13.136;2023-02-13T01:31:38;101522.84;;;10.08;70.21
54329;BME280;40710;51.120;13.136;2023-02-13T01:34:02;101521.97;;;10.07;69.19
54329;BME280;40710;51.120;13.136;2023-02-13T01:36:27;101529.59;;;10.24;69.45
54329;BME280;40710;51.120;13.136;2023-02-13T01:38:53;101530.91;;;9.95;70.59
54329;BME280;40710;51.120;13.136;2023-02-13T01:41:19;101526.41;;;10.03;69.58
54329;BME280;40710;51.120;13.136;2023-02-13T01:46:13;101512.25;;;10.14;69.07
54329;BME280;40710;51.120;13.136;2023-02-13T01:48:39;101509.38;;;10.28;69.29
54329;BME280;40710;51.120;13.136;2023-02-13T01:51:13;101523.03;;;9.95;70.03
54329;BME280;40710;51.120;13.136;2023-02-13T01:53:49;101514.13;;;10.06;69.05
54329;BME280;40710;51.120;13.136;2023-02-13T01:56:22;101500.19;;;10.97;66.53
54329;BME280;40710;51.120;13.136;2023-02-13T01:58:53;101505.66;;;10.41;68.40
54329;BME280;40710;51.120;13.136;2023-02-13T02:01:20;101494.31;;;11.28;65.70
54329;BME280;40710;51.120;13.136;2023-02-13T02:03:59;101503.13;;;10.82;67.29
54329;BME280;40710;51.120;13.136;2023-02-13T02:06:28;101495.38;;;10.75;66.44
54329;BME280;40710;51.120;13.136;2023-02-13T02:09:01;101496.91;;;10.87;66.46
54329;BME280;40710;51.120;13.136;2023-02-13T02:12:23;101494.84;;;10.58;67.23
54329;BME280;40710;51.120;13.136;2023-02-13T02:14:26;101501.19;;;10.91;66.49
54329;BME280;40710;51.120;13.136;2023-02-13T02:16:51;101501.16;;;10.48;68.44
54329;BME280;40710;51.120;13.136;2023-02-13T02:25:36;101490.47;;;10.57;67.40
54329;BME280;40710;51.120;13.136;2023-02-13T02:28:39;101487.56;;;10.71;66.98
54329;BME280;40710;51.120;13.136;2023-02-13T02:31:18;101483.44;;;11.03;66.16
54329;BME280;40710;51.120;13.136;2023-02-13T02:36:52;101482.69;;;10.96;66.16
54329;BME280;40710;51.120;13.136;2023-02-13T02:45:15;101483.91;;;10.78;66.51
54329;BME280;40710;51.120;13.136;2023-02-13T02:47:58;101477.34;;;10.99;66.43
54329;BME280;40710;51.120;13.136;2023-02-13T02:50:52;101488.53;;;10.67;67.09
54329;BME280;40710;51.120;13.136;2023-02-13T02:53:31;101487.28;;;10.85;66.86
54329;BME280;40710;51.120;13.136;2023-02-13T02:56:17;101489.91;;;10.86;66.46
54329;BME280;40710;51.120;13.136;2023-02-13T02:58:55;101483.50;;;11.00;66.38
54329;BME280;40710;51.120;13.136;2023-02-13T03:01:43;101494.34;;;10.83;66.45
54329;BME280;40710;51.120;13.136;2023-02-13T03:04:32;101480.59;;;10.70;66.70
54329;BME280;40710;51.120;13.136;2023-02-13T03:07:32;101490.03;;;10.30;68.07
54329;BME280;40710;51.120;13.136;2023-02-13T03:10:02;101497.38;;;10.11;69.34
54329;BME280;40710;51.120;13.136;2023-02-13T03:12:57;101486.25;;;10.48;67.87
54329;BME280;40710;51.120;13.136;2023-02-13T03:15:44;101487.09;;;10.52;67.80
54329;BME280;40710;51.120;13.136;2023-02-13T03:18:31;101494.25;;;10.42;68.09
54329;BME280;40710;51.120;13.136;2023-02-13T03:27:25;101494.19;;;10.47;67.79
54329;BME280;40710;51.120;13.136;2023-02-13T03:30:38;101509.91;;;9.95;68.44
54329;BME280;40710;51.120;13.136;2023-02-13T03:33:28;101503.03;;;10.39;68.12
54329;BME280;40710;51.120;13.136;2023-02-13T03:36:17;101495.31;;;10.32;67.70
54329;BME280;40710;51.120;13.136;2023-02-13T03:39:19;101502.78;;;10.03;68.25
54329;BME280;40710;51.120;13.136;2023-02-13T03:42:06;101517.84;;;9.92;69.17
54329;BME280;40710;51.120;13.136;2023-02-13T03:44:53;101514.78;;;10.18;68.36
54329;BME280;40710;51.120;13.136;2023-02-13T03:47:41;101510.94;;;9.85;70.06
54329;BME280;40710;51.120;13.136;2023-02-13T03:50:10;101504.53;;;10.05;68.68
54329;BME280;40710;51.120;13.136;2023-02-13T03:53:00;101500.16;;;10.53;67.71
54329;BME280;40710;51.120;13.136;2023-02-13T03:55:33;101496.59;;;10.57;67.31
54329;BME280;40710;51.120;13.136;2023-02-13T03:58:23;101498.22;;;10.65;66.92
54329;BME280;40710;51.120;13.136;2023-02-13T04:01:12;101503.00;;;10.43;67.20
54329;BME280;40710;51.120;13.136;2023-02-13T04:03:41;101505.41;;;10.55;67.18
54329;BME280;40710;51.120;13.136;2023-02-13T04:06:12;101511.00;;;10.36;68.13
54329;BME280;40710;51.120;13.136;2023-02-13T04:08:39;101518.66;;;9.96;68.18
54329;BME280;40710;51.120;13.136;2023-02-13T04:11:08;101511.25;;;10.21;67.97
54329;BME280;40710;51.120;13.136;2023-02-13T04:13:48;101510.00;;;10.44;66.81
54329;BME280;40710;51.120;13.136;2023-02-13T04:16:20;101501.19;;;10.45;66.83
54329;BME280;40710;51.120;13.136;2023-02-13T04:18:48;101520.63;;;9.81;68.96
54329;BME280;40710;51.120;13.136;2023-02-13T04:21:16;101518.28;;;10.19;68.27
54329;BME280;40710;51.120;13.136;2023-02-13T04:23:40;101513.47;;;10.46;67.44
54329;BME280;40710;51.120;13.136;2023-02-13T04:26:08;101514.69;;;10.25;67.71
54329;BME280;40710;51.120;13.136;2023-02-13T04:28:35;101530.75;;;9.49;69.67
54329;BME280;40710;51.120;13.136;2023-02-13T04:31:00;101521.25;;;9.97;69.19
54329;BME280;40710;51.120;13.136;2023-02-13T04:33:24;101512.06;;;10.23;68.37
54329;BME280;40710;51.120;13.136;2023-02-13T04:35:49;101524.31;;;9.70;69.51
54329;BME280;40710;51.120;13.136;2023-02-13T04:38:13;101511.31;;;10.15;68.12
54329;BME280;40710;51.120;13.136;2023-02-13T04:40:38;101525.50;;;9.49;70.54
54329;BME280;40710;51.120;13.136;2023-02-13T04:43:03;101509.38;;;10.28;68.35
54329;BME280;40710;51.120;13.136;2023-02-13T04:45:27;101527.66;;;9.16;71.29
54329;BME280;40710;51.120;13.136;2023-02-13T04:47:53;101515.03;;;10.05;69.46
54329;BME280;40710;51.120;13.136;2023-02-13T04:50:19;101519.56;;;9.93;70.02
54329;BME280;40710;51.120;13.136;2023-02-13T04:52:44;101510.00;;;9.91;69.67
54329;BME280;40710;51.120;13.136;2023-02-13T04:55:09;101510.00;;;9.89;69.73
54329;BME280;40710;51.120;13.136;2023-02-13T04:57:33;101499.28;;;10.05;68.01
54329;BME280;40710;51.120;13.136;2023-02-13T04:59:58;101503.94;;;9.86;69.04
54329;BME280;40710;51.120;13.136;2023-02-13T05:02:22;101489.25;;;10.25;68.46
54329;BME280;40710;51.120;13.136;2023-02-13T05:04:47;101495.41;;;10.26;67.52
54329;BME280;40710;51.120;13.136;2023-02-13T05:07:11;101497.84;;;9.83;68.34
54329;BME280;40710;51.120;13.136;2023-02-13T05:09:36;101498.16;;;10.18;68.81
54329;BME280;40710;51.120;13.136;2023-02-13T05:12:00;101489.66;;;10.02;68.69
54329;BME280;40710;51.120;13.136;2023-02-13T05:14:25;101501.34;;;10.38;67.90
54329;BME280;40710;51.120;13.136;2023-02-13T05:16:49;101499.72;;;10.31;67.79
54329;BME280;40710;51.120;13.136;2023-02-13T05:19:15;101492.25;;;10.55;67.27
54329;BME280;40710;51.120;13.136;2023-02-13T05:21:39;101493.06;;;10.58;66.50
54329;BME280;40710;51.120;13.136;2023-02-13T05:24:22;101488.75;;;10.56;66.22
54329;BME280;40710;51.120;13.136;2023-02-13T05:26:47;101503.56;;;10.09;68.35
54329;BME280;40710;51.120;13.136;2023-02-13T05:29:11;101500.16;;;10.03;68.24
54329;BME280;40710;51.120;13.136;2023-02-13T05:31:42;101503.38;;;10.19;67.57
54329;BME280;40710;51.120;13.136;2023-02-13T05:34:06;101499.88;;;10.69;66.27
54329;BME280;40710;51.120;13.136;2023-02-13T05:36:31;101498.22;;;10.65;66.29
54329;BME280;40710;51.120;13.136;2023-02-13T05:38:55;101502.63;;;10.64;65.55
54329;BME280;40710;51.120;13.136;2023-02-13T05:41:20;101500.81;;;10.66;65.56
54329;BME280;40710;51.120;13.136;2023-02-13T05:43:44;101499.00;;;10.70;65.10
54329;BME280;40710;51.120;13.136;2023-02-13T05:46:09;101497.38;;;10.64;65.63
54329;BME280;40710;51.120;13.136;2023-02-13T05:48:34;101491.75;;;10.81;65.17
54329;BME280;40710;51.120;13.136;2023-02-13T05:50:59;101492.03;;;10.67;65.09
54329;BME280;40710;51.120;13.136;2023-02-13T05:53:24;101483.09;;;10.74;64.97
54329;BME280;40710;51.120;13.136;2023-02-13T05:55:49;101483.25;;;10.68;64.74
54329;BME280;40710;51.120;13.136;2023-02-13T05:58:15;101489.31;;;10.72;64.42
54329;BME280;40710;51.120;13.136;2023-02-13T06:00:40;101490.38;;;10.62;64.05
54329;BME280;40710;51.120;13.136;2023-02-13T06:03:04;101505.72;;;10.85;64.31
54329;BME280;40710;51.120;13.136;2023-02-13T06:05:29;101497.44;;;11.05;63.32
54329;BME280;40710;51.120;13.136;2023-02-13T06:07:53;101492.56;;;10.85;63.65
54329;BME280;40710;51.120;13.136;2023-02-13T06:10:18;101492.22;;;11.02;63.12
54329;BME280;40710;51.120;13.136;2023-02-13T06:12:42;101485.97;;;11.07;63.31
54329;BME280;40710;51.120;13.136;2023-02-13T06:15:07;101494.41;;;10.79;63.37
54329;BME280;40710;51.120;13.136;2023-02-13T06:17:31;101491.53;;;10.92;63.62
54329;BME280;40710;51.120;13.136;2023-02-13T06:19:56;101494.78;;;11.06;63.02
54329;BME280;40710;51.120;13.136;2023-02-13T06:22:21;101492.47;;;10.43;64.15
54329;BME280;40710;51.120;13.136;2023-02-13T06:24:45;101500.88;;;10.63;64.26
54329;BME280;40710;51.120;13.136;2023-02-13T06:27:10;101499.38;;;10.48;64.19
54329;BME280;40710;51.120;13.136;2023-02-13T06:29:34;101503.09;;;10.83;63.31
54329;BME280;40710;51.120;13.136;2023-02-13T06:31:59;101502.13;;;10.89;63.35
54329;BME280;40710;51.120;13.136;2023-02-13T06:34:23;101505.06;;;10.73;63.32
54329;BME280;40710;51.120;13.136;2023-02-13T06:36:48;101502.75;;;11.02;63.31
54329;BME280;40710;51.120;13.136;2023-02-13T06:39:13;101508.47;;;10.29;64.42
54329;BME280;40710;51.120;13.136;2023-02-13T06:41:37;101503.28;;;10.74;63.44
54329;BME280;40710;51.120;13.136;2023-02-13T06:44:02;101512.53;;;10.48;64.98
54329;BME280;40710;51.120;13.136;2023-02-13T06:46:26;101510.50;;;10.64;63.73
54329;BME280;40710;51.120;13.136;2023-02-13T06:48:51;101513.13;;;11.08;62.58
54329;BME280;40710;51.120;13.136;2023-02-13T06:51:15;101513.53;;;10.88;62.79
54329;BME280;40710;51.120;13.136;2023-02-13T06:53:40;101513.84;;;11.16;61.93
54329;BME280;40710;51.120;13.136;2023-02-13T06:56:04;101513.03;;;11.12;62.49
54329;BME280;40710;51.120;13.136;2023-02-13T06:58:30;101522.59;;;11.16;62.25
54329;BME280;40710;51.120;13.136;2023-02-13T07:00:54;101517.84;;;10.92;62.86
54329;BME280;40710;51.120;13.136;2023-02-13T07:03:19;101514.25;;;11.38;61.46
54329;BME280;40710;51.120;13.136;2023-02-13T07:05:44;101524.50;;;10.66;62.23
54329;BME280;40710;51.120;13.136;2023-02-13T07:08:10;101525.06;;;10.32;63.28
54329;BME280;40710;51.120;13.136;2023-02-13T07:10:39;101525.03;;;10.35;63.97
54329;BME280;40710;51.120;13.136;2023-02-13T07:13:05;101520.38;;;10.50;64.50
54329;BME280;40710;51.120;13.136;2023-02-13T07:15:31;101522.78;;;10.62;63.64
54329;BME280;40710;51.120;13.136;2023-02-13T07:17:56;101537.34;;;9.76;66.05
54329;BME280;40710;51.120;13.136;2023-02-13T07:20:20;101520.13;;;10.65;63.72
54329;BME280;40710;51.120;13.136;2023-02-13T07:22:45;101537.56;;;9.60;66.97
54329;BME280;40710;51.120;13.136;2023-02-13T07:25:09;101531.41;;;10.70;64.40
54329;BME280;40710;51.120;13.136;2023-02-13T07:27:34;101540.75;;;9.82;65.49
54329;BME280;40710;51.120;13.136;2023-02-13T07:29:58;101552.88;;;9.91;67.19
54329;BME280;40710;51.120;13.136;2023-02-13T07:32:24;101542.97;;;11.08;63.11
54329;BME280;40710;51.120;13.136;2023-02-13T07:34:48;101535.19;;;11.02;61.70
54329;BME280;40710;51.120;13.136;2023-02-13T07:37:13;101534.56;;;11.33;61.92
54329;BME280;40710;51.120;13.136;2023-02-13T07:39:37;101543.00;;;11.47;61.63
54329;BME280;40710;51.120;13.136;2023-02-13T07:42:02;101534.06;;;11.54;60.50
54329;BME280;40710;51.120;13.136;2023-02-13T07:44:27;101547.47;;;11.44;61.41
54329;BME280;40710;51.120;13.136;2023-02-13T07:46:51;101548.25;;;10.60;63.90
54329;BME280;40710;51.120;13.136;2023-02-13T07:49:16;101538.69;;;11.45;61.73
54329;BME280;40710;51.120;13.136;2023-02-13T07:51:40;101539.56;;;11.83;60.53
54329;BME280;40710;51.120;13.136;2023-02-13T07:54:05;101531.38;;;11.58;60.64
54329;BME280;40710;51.120;13.136;2023-02-13T07:56:29;101539.91;;;11.67;60.56
54329;BME280;40710;51.120;13.136;2023-02-13T07:58:54;101545.69;;;11.44;60.84
54329;BME280;40710;51.120;13.136;2023-02-13T08:01:19;101550.41;;;11.30;62.16
54329;BME280;40710;51.120;13.136;2023-02-13T08:03:46;101536.84;;;11.87;60.66
54329;BME280;40710;51.120;13.136;2023-02-13T08:06:11;101543.84;;;11.49;61.20
54329;BME280;40710;51.120;13.136;2023-02-13T08:08:35;101541.22;;;11.49;60.82
54329;BME280;40710;51.120;13.136;2023-02-13T08:11:06;101540.44;;;11.44;60.88
54329;BME280;40710;51.120;13.136;2023-02-13T08:13:50;101550.56;;;11.22;61.78
54329;BME280;40710;51.120;13.136;2023-02-13T08:16:15;101549.00;;;11.13;62.23
54329;BME280;40710;51.120;13.136;2023-02-13T08:18:39;101545.69;;;11.04;62.36
54329;BME280;40710;51.120;13.136;2023-02-13T08:21:04;101550.06;;;11.47;61.59
54329;BME280;40710;51.120;13.136;2023-02-13T08:23:29;101538.13;;;11.29;61.64
54329;BME280;40710;51.120;13.136;2023-02-13T08:25:53;101542.69;;;11.63;60.74
54329;BME280;40710;51.120;13.136;2023-02-13T08:28:18;101540.25;;;10.68;62.64
54329;BME280;40710;51.120;13.136;2023-02-13T08:30:42;101554.94;;;9.69;65.61
54329;BME280;40710;51.120;13.136;2023-02-13T08:33:07;101561.63;;;9.90;66.18
54329;BME280;40710;51.120;13.136;2023-02-13T08:35:31;101572.97;;;9.30;66.87
54329;BME280;40710;51.120;13.136;2023-02-13T08:38:00;101589.38;;;8.68;70.42
54329;BME280;40710;51.120;13.136;2023-02-13T08:40:25;101581.97;;;9.06;68.22
54329;BME280;40710;51.120;13.136;2023-02-13T08:42:49;101579.47;;;8.98;69.20
54329;BME280;40710;51.120;13.136;2023-02-13T08:45:14;101574.47;;;9.48;67.05
54329;BME280;40710;51.120;13.136;2023-02-13T08:47:38;101585.19;;;9.33;67.70
54329;BME280;40710;51.120;13.136;2023-02-13T08:50:04;101590.66;;;9.14;68.39
54329;BME280;40710;51.120;13.136;2023-02-13T08:52:29;101599.66;;;8.88;69.48
54329;BME280;40710;51.120;13.136;2023-02-13T08:54:53;101587.59;;;9.50;68.17
54329;BME280;40710;51.120;13.136;2023-02-13T08:57:18;101569.88;;;10.23;64.63
54329;BME280;40710;51.120;13.136;2023-02-13T08:59:42;101564.50;;;10.32;64.10
54329;BME280;40710;51.120;13.136;2023-02-13T09:02:10;101585.88;;;9.49;66.64
54329;BME280;40710;51.120;13.136;2023-02-13T09:04:34;101576.25;;;10.08;65.26
54329;BME280;40710;51.120;13.136;2023-02-13T09:06:59;101573.94;;;9.87;65.17
54329;BME280;40710;51.120;13.136;2023-02-13T09:09:23;101579.50;;;10.24;64.71
54329;BME280;40710;51.120;13.136;2023-02-13T09:11:48;101569.03;;;10.75;62.84
54329;BME280;40710;51.120;13.136;2023-02-13T09:14:14;101579.22;;;10.44;63.26
54329;BME280;40710;51.120;13.136;2023-02-13T09:16:39;101577.28;;;10.55;63.53
54329;BME280;40710;51.120;13.136;2023-02-13T09:19:03;101591.06;;;9.50;67.24
54329;BME280;40710;51.120;13.136;2023-02-13T09:21:28;101575.38;;;10.62;63.39
54329;BME280;40710;51.120;13.136;2023-02-13T09:23:54;101570.75;;;10.23;64.24
54329;BME280;40710;51.120;13.136;2023-02-13T09:26:19;101563.81;;;10.71;62.65
54329;BME280;40710;51.120;13.136;2023-02-13T09:28:43;101574.06;;;10.38;63.48
54329;BME280;40710;51.120;13.136;2023-02-13T09:31:13;101574.28;;;9.63;65.16
54329;BME280;40710;51.120;13.136;2023-02-13T09:33:39;101581.09;;;10.36;64.28
54329;BME280;40710;51.120;13.136;2023-02-13T09:36:07;101569.94;;;10.20;64.01
54329;BME280;40710;51.120;13.136;2023-02-13T09:38:33;101557.06;;;11.46;61.33
54329;BME280;40710;51.120;13.136;2023-02-13T09:41:06;101570.44;;;10.45;63.46
54329;BME280;40710;51.120;13.136;2023-02-13T09:44:57;101576.78;;;10.32;64.72
54329;BME280;40710;51.120;13.136;2023-02-13T09:47:16;101583.19;;;10.68;64.48
54329;BME280;40710;51.120;13.136;2023-02-13T09:49:51;101577.13;;;10.63;63.41
54329;BME280;40710;51.120;13.136;2023-02-13T09:52:17;101579.69;;;10.13;65.25
54329;BME280;40710;51.120;13.136;2023-02-13T09:54:42;101582.22;;;10.18;64.20
54329;BME280;40710;51.120;13.136;2023-02-13T09:59:57;101580.19;;;10.38;64.21
54329;BME280;40710;51.120;13.136;2023-02-13T10:02:30;101596.72;;;9.18;67.24
54329;BME280;40710;51.120;13.136;2023-02-13T10:07:52;101584.50;;;10.43;64.59
54329;BME280;40710;51.120;13.136;2023-02-13T10:16:11;101578.78;;;10.69;62.55
54329;BME280;40710;51.120;13.136;2023-02-13T10:21:53;101568.44;;;11.06;61.30
54329;BME280;40710;51.120;13.136;2023-02-13T10:24:33;101579.94;;;9.96;62.93
54329;BME280;40710;51.120;13.136;2023-02-13T10:27:04;101563.16;;;10.61;61.74
54329;BME280;40710;51.120;13.136;2023-02-13T10:29:42;101576.31;;;10.03;63.29
54329;BME280;40710;51.120;13.136;2023-02-13T10:35:32;101555.44;;;10.97;60.33
54329;BME280;40710;51.120;13.136;2023-02-13T10:37:58;101553.53;;;10.58;60.69
54329;BME280;40710;51.120;13.136;2023-02-13T10:40:38;101563.03;;;10.13;62.64
54329;BME280;40710;51.120;13.136;2023-02-13T10:43:09;101566.94;;;9.87;62.81
54329;BME280;40710;51.120;13.136;2023-02-13T10:46:12;101551.28;;;10.37;62.23
54329;BME280;40710;51.120;13.136;2023-02-13T10:48:58;101540.50;;;10.99;60.06
54329;BME280;40710;51.120;13.136;2023-02-13T10:51:50;101560.88;;;9.83;62.76
54329;BME280;40710;51.120;13.136;2023-02-13T10:54:23;101545.22;;;10.33;61.59
54329;BME280;40710;51.120;13.136;2023-02-13T10:57:13;101541.22;;;10.08;61.82
54329;BME280;40710;51.120;13.136;2023-02-13T11:02:43;101529.09;;;10.00;62.11
54329;BME280;40710;51.120;13.136;2023-02-13T11:05:24;101521.97;;;10.60;61.05
54329;BME280;40710;51.120;13.136;2023-02-13T11:07:49;101512.00;;;11.20;59.27
54329;BME280;40710;51.120;13.136;2023-02-13T11:10:18;101518.53;;;11.02;58.96
54329;BME280;40710;51.120;13.136;2023-02-13T11:12:43;101501.34;;;12.04;57.23
54329;BME280;40710;51.120;13.136;2023-02-13T11:15:27;101509.81;;;11.40;58.97
54329;BME280;40710;51.120;13.136;2023-02-13T11:18:01;101493.31;;;11.71;57.68
54329;BME280;40710;51.120;13.136;2023-02-13T11:20:34;101511.38;;;11.08;59.14
54329;BME280;40710;51.120;13.136;2023-02-13T11:25:52;101501.63;;;11.13;58.15
54329;BME280;40710;51.120;13.136;2023-02-13T11:28:20;101501.16;;;11.35;57.22
54329;BME280;40710;51.120;13.136;2023-02-13T11:30:44;101509.00;;;10.96;58.61
54329;BME280;40710;51.120;13.136;2023-02-13T11:35:40;101500.41;;;10.41;59.15
54329;BME280;40710;51.120;13.136;2023-02-13T11:40:41;101503.91;;;10.87;58.98
54329;BME280;40710;51.120;13.136;2023-02-13T11:43:28;101513.09;;;10.66;59.80
54329;BME280;40710;51.120;13.136;2023-02-13T11:48:25;101510.97;;;10.85;59.84
54329;BME280;40710;51.120;13.136;2023-02-13T11:50:51;101505.84;;;10.78;59.94
54329;BME280;40710;51.120;13.136;2023-02-13T11:53:37;101521.19;;;9.43;63.29
54329;BME280;40710;51.120;13.136;2023-02-13T11:56:07;101515.09;;;10.00;62.32
54329;BME280;40710;51.120;13.136;2023-02-13T11:58:32;101505.25;;;10.64;60.65
54329;BME280;40710;51.120;13.136;2023-02-13T12:01:26;101515.66;;;10.19;61.19
54329;BME280;40710;51.120;13.136;2023-02-13T12:04:16;101518.97;;;9.74;62.84
54329;BME280;40710;51.120;13.136;2023-02-13T12:07:01;101521.44;;;9.85;62.29
54329;BME280;40710;51.120;13.136;2023-02-13T12:09:26;101522.56;;;9.69;62.84
54329;BME280;40710;51.120;13.136;2023-02-13T12:11:53;101505.91;;;11.18;60.94
54329;BME280;40710;51.120;13.136;2023-02-13T12:14:26;101500.97;;;10.57;59.74
54329;BME280;40710;51.120;13.136;2023-02-13T12:17:04;101492.72;;;11.21;59.15
54329;BME280;40710;51.120;13.136;2023-02-13T12:19:47;101480.41;;;11.60;58.40
54329;BME280;40710;51.120;13.136;2023-02-13T12:22:29;101487.78;;;11.44;58.83
54329;BME280;40710;51.120;13.136;2023-02-13T12:28:15;101468.44;;;11.47;56.94
54329;BME280;40710;51.120;13.136;2023-02-13T12:31:03;101488.31;;;10.77;60.32
54329;BME280;40710;51.120;13.136;2023-02-13T12:33:57;101483.53;;;10.98;59.89
54329;BME280;40710;51.120;13.136;2023-02-13T12:36:49;101480.56;;;11.15;59.26
54329;BME280;40710;51.120;13.136;2023-02-13T12:39:33;101468.09;;;11.22;59.07
54329;BME280;40710;51.120;13.136;2023-02-13T12:42:24;101476.63;;;10.49;60.88
54329;BME280;40710;51.120;13.136;2023-02-13T12:44:58;101482.84;;;9.90;63.20
54329;BME280;40710;51.120;13.136;2023-02-13T12:47:30;101469.31;;;11.07;60.44
54329;BME280;40710;51.120;13.136;2023-02-13T12:50:12;101466.16;;;10.89;59.78
54329;BME280;40710;51.120;13.136;2023-02-13T12:53:35;101468.78;;;10.91;60.57
54329;BME280;40710;51.120;13.136;2023-02-13T12:56:42;101467.44;;;10.21;61.55
54329;BME280;40710;51.120;13.136;2023-02-13T13:05:12;101471.50;;;9.88;60.92
54329;BME280;40710;51.120;13.136;2023-02-13T13:10:35;101461.72;;;10.93;58.77
54329;BME280;40710;51.120;13.136;2023-02-13T13:13:18;101483.94;;;10.31;60.73
54329;BME280;40710;51.120;13.136;2023-02-13T13:15:49;101479.97;;;10.06;61.75
54329;BME280;40710;51.120;13.136;2023-02-13T13:18:34;101479.09;;;10.07;62.82
54329;BME280;40710;51.120;13.136;2023-02-13T13:21:31;101474.97;;;10.87;60.58
54329;BME280;40710;51.120;13.136;2023-02-13T13:26:43;101471.09;;;10.63;60.46
54329;BME280;40710;51.120;13.136;2023-02-13T13:31:40;101472.47;;;10.81;59.72
54329;BME280;40710;51.120;13.136;2023-02-13T13:34:15;101463.41;;;10.52;59.80
54329;BME280;40710;51.120;13.136;2023-02-13T13:39:49;101464.91;;;10.65;59.52
54329;BME280;40710;51.120;13.136;2023-02-13T13:45:26;101446.75;;;11.73;56.25
54329;BME280;40710;51.120;13.136;2023-02-13T13:50:40;101468.72;;;10.49;59.71
54329;BME280;40710;51.120;13.136;2023-02-13T13:53:17;101457.44;;;11.28;58.04
54329;BME280;40710;51.120;13.136;2023-02-13T13:58:40;101462.03;;;10.77;59.07
54329;BME280;40710;51.120;13.136;2023-02-13T14:03:50;101473.50;;;10.25;60.42
54329;BME280;40710;51.120;13.136;2023-02-13T14:06:20;101467.81;;;10.50;60.15
54329;BME280;40710;51.120;13.136;2023-02-13T14:09:05;101464.69;;;10.74;59.28
54329;BME280;40710;51.120;13.136;2023-02-13T14:11:38;101468.72;;;9.97;60.35
54329;BME280;40710;51.120;13.136;2023-02-13T14:16:50;101451.81;;;11.45;56.66
54329;BME280;40710;51.120;13.136;2023-02-13T14:19:39;101476.44;;;10.58;59.57
54329;BME280;40710;51.120;13.136;2023-02-13T14:24:53;101466.97;;;10.93;58.98
54329;BME280;40710;51.120;13.136;2023-02-13T14:27:25;101471.25;;;10.97;58.61
54329;BME280;40710;51.120;13.136;2023-02-13T14:29:52;101472.72;;;10.20;60.06
54329;BME280;40710;51.120;13.136;2023-02-13T14:32:23;101484.53;;;9.94;61.68
54329;BME280;40710;51.120;13.136;2023-02-13T14:34:57;101482.78;;;9.37;62.28